createdAt,value
2022-08-29T00:00:38.414Z,100804.87
2022-08-29T00:06:03.253Z,100808.92
2022-08-29T00:11:26.514Z,100810.39
2022-08-29T00:16:48.829Z,100805.98
2022-08-29T00:22:11.637Z,100803.91
2022-08-29T00:27:33.846Z,100808.26
2022-08-29T00:32:57.261Z,100799.48
2022-08-29T00:38:22.908Z,100808.63
2022-08-29T00:43:49.720Z,100817.39
2022-08-29T00:49:16.329Z,100816.70
2022-08-29T00:54:39.473Z,100819.41
2022-08-29T01:00:04.281Z,100820.71
2022-08-29T01:05:30.390Z,100825.08
2022-08-29T01:11:11.837Z,100821.95
2022-08-29T01:16:37.524Z,100827.70
2022-08-29T01:22:12.933Z,100826.69
2022-08-29T01:27:38.397Z,100839.41
2022-08-29T01:33:02.205Z,100841.27
2022-08-29T01:38:30.041Z,100848.72
2022-08-29T01:43:57.569Z,100851.18
2022-08-29T01:49:22.982Z,100856.61
2022-08-29T01:54:47.000Z,100868.63
2022-08-29T02:00:11.774Z,100867.20
2022-08-29T02:05:35.558Z,100872.09
2022-08-29T02:10:58.757Z,100868.27
2022-08-29T02:16:22.369Z,100867.87
2022-08-29T02:21:46.369Z,100877.30
2022-08-29T02:27:09.702Z,100871.88
2022-08-29T02:32:33.050Z,100871.08
2022-08-29T02:37:56.139Z,100873.56
2022-08-29T02:43:20.096Z,100872.59
2022-08-29T02:48:42.316Z,100870.52
2022-08-29T02:54:07.668Z,100876.38
2022-08-29T02:59:29.857Z,100886.67
2022-08-29T03:04:52.417Z,100883.53
2022-08-29T03:10:16.578Z,100884.13
2022-08-29T03:15:39.104Z,100885.69
2022-08-29T03:21:02.541Z,100890.09
2022-08-29T03:26:25.617Z,100885.77
2022-08-29T03:31:48.470Z,100888.75
2022-08-29T03:37:11.845Z,100889.69
2022-08-29T03:42:34.211Z,100886.11
2022-08-29T03:47:57.425Z,100889.38
2022-08-29T03:53:19.690Z,100888.92
2022-08-29T03:58:42.495Z,100890.34
2022-08-29T04:04:04.902Z,100887.46
2022-08-29T04:09:27.116Z,100896.52
2022-08-29T04:14:49.651Z,100908.84
2022-08-29T04:20:13.814Z,100905.81
2022-08-29T04:25:37.978Z,100908.66
2022-08-29T04:31:03.261Z,100913.62
2022-08-29T04:36:26.416Z,100911.92
2022-08-29T04:41:49.419Z,100911.78
2022-08-29T04:47:12.214Z,100910.51
2022-08-29T04:52:37.695Z,100921.64
2022-08-29T04:58:01.437Z,100916.01
2022-08-29T05:03:23.918Z,100913.35
2022-08-29T05:08:48.387Z,100919.66
2022-08-29T05:14:13.155Z,100921.83
2022-08-29T05:19:35.445Z,100931.11
2022-08-29T05:24:58.816Z,100936.55
2022-08-29T05:30:35.047Z,100938.51
2022-08-29T05:35:48.467Z,100944.70
2022-08-29T05:41:11.621Z,100935.70
2022-08-29T05:46:34.027Z,100941.33
2022-08-29T05:51:58.201Z,100931.67
2022-08-29T05:57:23.985Z,100939.66
2022-08-29T06:02:46.542Z,100937.11
2022-08-29T06:08:10.597Z,100935.57
2022-08-29T06:13:33.431Z,100935.98
2022-08-29T06:18:55.739Z,100949.81
2022-08-29T06:24:18.899Z,100948.52
2022-08-29T06:29:43.662Z,100962.34
2022-08-29T06:35:07.429Z,100966.33
2022-08-29T06:40:30.306Z,100961.31
2022-08-29T06:45:55.256Z,100972.56
2022-08-29T06:51:22.454Z,100977.23
2022-08-29T06:56:45.827Z,100992.50
2022-08-29T07:02:08.552Z,101006.27
2022-08-29T07:07:30.803Z,100997.70
2022-08-29T07:12:54.690Z,100986.75
2022-08-29T07:18:17.216Z,100997.16
2022-08-29T07:23:41.024Z,100993.36
2022-08-29T07:29:07.515Z,101002.22
2022-08-29T07:34:30.300Z,101007.05
2022-08-29T07:39:52.569Z,101012.95
2022-08-29T07:45:15.924Z,101017.06
2022-08-29T07:50:39.461Z,101013.83
2022-08-29T07:56:02.864Z,101011.88
2022-08-29T08:01:26.005Z,101023.13
2022-08-29T08:06:49.999Z,101017.24
2022-08-29T08:12:13.149Z,101026.09
2022-08-29T08:17:36.326Z,101028.58
2022-08-29T08:23:00.278Z,101034.05
2022-08-29T08:28:24.373Z,101037.78
2022-08-29T08:33:49.146Z,101046.60
2022-08-29T08:39:12.758Z,101041.45
2022-08-29T08:44:40.056Z,101050.63
2022-08-29T08:50:14.414Z,101059.56
2022-08-29T08:56:01.929Z,101062.12
2022-08-29T09:01:48.274Z,101061.55
2022-08-29T09:07:56.413Z,101054.24
2022-08-29T09:13:42.580Z,101051.64
2022-08-29T09:19:09.725Z,101061.73
2022-08-29T09:24:42.686Z,101066.61
2022-08-29T09:30:10.236Z,101061.62
2022-08-29T09:35:43.342Z,101061.00
2022-08-29T09:41:15.465Z,101052.55
2022-08-29T09:46:43.234Z,101058.71
2022-08-29T09:52:16.209Z,101058.56
2022-08-29T09:57:42.722Z,101055.05
2022-08-29T10:03:11.753Z,101056.58
2022-08-29T10:09:12.481Z,101059.16
2022-08-29T10:15:00.234Z,101046.66
2022-08-29T10:20:25.274Z,101040.97
2022-08-29T10:25:50.532Z,101047.25
2022-08-29T10:31:32.287Z,101046.88
2022-08-29T10:36:58.731Z,101037.84
2022-08-29T10:42:27.339Z,101042.63
2022-08-29T10:47:55.243Z,101030.27
2022-08-29T10:53:34.951Z,101034.61
2022-08-29T10:59:32.785Z,101033.58
2022-08-29T11:05:00.022Z,101023.17
2022-08-29T11:10:35.449Z,101019.85
2022-08-29T11:16:09.415Z,101026.93
2022-08-29T11:21:47.897Z,101019.35
2022-08-29T11:27:23.621Z,101036.51
2022-08-29T11:33:03.878Z,101043.68
2022-08-29T11:38:58.098Z,101030.37
2022-08-29T11:44:43.181Z,101027.83
2022-08-29T11:50:11.379Z,101025.14
2022-08-29T11:55:50.556Z,101029.88
2022-08-29T12:01:33.765Z,101022.88
2022-08-29T12:07:21.331Z,101027.98
2022-08-29T12:12:59.737Z,101036.72
2022-08-29T12:18:33.389Z,101028.06
2022-08-29T12:23:55.600Z,101004.45
2022-08-29T12:29:25.065Z,101027.58
2022-08-29T12:35:15.069Z,101024.22
2022-08-29T12:40:57.231Z,101042.77
2022-08-29T12:46:30.062Z,101038.20
2022-08-29T12:51:57.390Z,101038.50
2022-08-29T12:57:24.239Z,101043.13
2022-08-29T13:02:53.541Z,101060.74
2022-08-29T13:08:41.674Z,101046.49
2022-08-29T13:14:13.025Z,101057.03
2022-08-29T13:19:40.174Z,101051.66
2022-08-29T13:25:10.989Z,101027.48
2022-08-29T13:30:36.640Z,101026.81
2022-08-29T13:36:00.520Z,101030.02
2022-08-29T13:41:26.886Z,101019.35
2022-08-29T13:46:51.605Z,101021.89
2022-08-29T13:52:14.451Z,101023.70
2022-08-29T13:57:39.635Z,101019.08
2022-08-29T14:03:04.191Z,101006.50
2022-08-29T14:08:28.909Z,101017.42
2022-08-29T14:13:51.675Z,101020.25
2022-08-29T14:19:13.966Z,101008.70
2022-08-29T14:24:37.986Z,101018.72
2022-08-29T14:30:00.940Z,101017.90
2022-08-29T14:35:26.824Z,101025.04
2022-08-29T14:40:49.947Z,101023.98
2022-08-29T14:46:12.855Z,101019.26
2022-08-29T14:51:35.740Z,101015.05
2022-08-29T14:57:00.151Z,101021.53
2022-08-29T15:02:23.447Z,101019.58
2022-08-29T15:07:46.611Z,101020.72
2022-08-29T15:13:11.099Z,101020.64
2022-08-29T15:19:22.362Z,101018.38
2022-08-29T15:23:57.978Z,101010.37
2022-08-29T15:29:21.595Z,101004.64
2022-08-29T15:34:44.722Z,101021.47
2022-08-29T15:40:12.422Z,101011.14
2022-08-29T15:45:32.665Z,101012.80
2022-08-29T15:50:54.967Z,101009.59
2022-08-29T15:56:17.580Z,101012.67
2022-08-29T16:01:47.169Z,101021.27
2022-08-29T16:07:12.757Z,101006.83
2022-08-29T16:12:35.541Z,101014.59
2022-08-29T16:17:57.788Z,101014.16
2022-08-29T16:23:20.825Z,101020.27
2022-08-29T16:28:45.001Z,101029.41
2022-08-29T16:34:08.220Z,101032.63
2022-08-29T16:39:30.893Z,101024.22
2022-08-29T16:44:54.352Z,101059.73
2022-08-29T16:50:18.448Z,101035.37
2022-08-29T16:55:41.758Z,101031.97
2022-08-29T17:01:04.392Z,101050.54
2022-08-29T17:06:29.216Z,101045.39
2022-08-29T17:11:51.603Z,101045.08
2022-08-29T17:17:14.645Z,101050.08
2022-08-29T17:22:37.457Z,101052.16
2022-08-29T17:28:17.082Z,101058.31
2022-08-29T17:33:27.299Z,101062.17
2022-08-29T17:38:51.825Z,101070.15
2022-08-29T17:44:15.081Z,101068.22
2022-08-29T17:49:37.641Z,101069.07
2022-08-29T17:55:03.776Z,101069.34
2022-08-29T18:00:25.874Z,101064.45
2022-08-29T18:05:48.754Z,101067.91
2022-08-29T18:11:11.069Z,101075.47
2022-08-29T18:16:33.763Z,101068.13
2022-08-29T18:21:57.913Z,101071.15
2022-08-29T18:27:20.505Z,101077.61
2022-08-29T18:32:43.124Z,101083.28
2022-08-29T18:38:05.317Z,101085.78
2022-08-29T18:43:28.514Z,101090.98
2022-08-29T18:48:51.610Z,101086.36
2022-08-29T18:54:18.939Z,101088.85
2022-08-29T18:59:38.542Z,101098.58
2022-08-29T19:05:01.248Z,101099.27
2022-08-29T19:10:26.468Z,101096.38
2022-08-29T19:15:51.073Z,101103.43
2022-08-29T19:21:14.026Z,101103.27
2022-08-29T19:26:45.343Z,101108.92
2022-08-29T19:32:08.545Z,101113.14
2022-08-29T19:37:30.782Z,101109.93
2022-08-29T19:42:55.481Z,101114.55
2022-08-29T19:48:19.306Z,101112.39
2022-08-29T19:53:42.654Z,101115.53
2022-08-29T19:59:06.393Z,101117.39
2022-08-29T20:04:29.339Z,101130.27
2022-08-29T20:09:52.705Z,101130.84
2022-08-29T20:15:16.303Z,101131.73
2022-08-29T20:20:42.215Z,101141.77
2022-08-29T20:26:05.349Z,101147.78
2022-08-29T20:31:28.330Z,101149.37
2022-08-29T20:37:08.902Z,101154.80
2022-08-29T20:42:33.374Z,101157.66
2022-08-29T20:47:57.236Z,101150.94
2022-08-29T20:53:32.134Z,101160.06
2022-08-29T20:58:44.276Z,101159.60
2022-08-29T21:04:24.565Z,101155.73
2022-08-29T21:09:50.851Z,101154.88
2022-08-29T21:15:13.939Z,101169.09
2022-08-29T21:20:36.195Z,101163.81
2022-08-29T21:26:02.721Z,101172.11
2022-08-29T21:31:26.623Z,101167.55
2022-08-29T21:36:50.469Z,101167.55
2022-08-29T21:42:12.803Z,101168.40
2022-08-29T21:47:35.447Z,101171.66
2022-08-29T21:52:58.710Z,101181.06
2022-08-29T21:58:21.592Z,101184.34
2022-08-29T22:03:50.087Z,101191.58
2022-08-29T22:09:10.648Z,101196.81
2022-08-29T22:14:51.634Z,101198.99
2022-08-29T22:20:14.010Z,101212.67
2022-08-29T22:25:37.038Z,101211.72
2022-08-29T22:30:59.245Z,101215.45
2022-08-29T22:36:23.361Z,101215.63
2022-08-29T22:41:47.924Z,101218.62
2022-08-29T22:47:10.241Z,101215.38
2022-08-29T22:52:33.472Z,101230.34
2022-08-29T22:57:55.696Z,101231.48
2022-08-29T23:03:18.925Z,101242.47
2022-08-29T23:08:41.701Z,101243.87
2022-08-29T23:14:05.552Z,101251.45
2022-08-29T23:19:29.348Z,101252.31
2022-08-29T23:24:57.748Z,101246.04
2022-08-29T23:30:20.180Z,101252.60
2022-08-29T23:35:42.438Z,101246.15
2022-08-29T23:41:04.681Z,101248.54
2022-08-29T23:46:27.671Z,101252.67
2022-08-29T23:51:49.887Z,101268.78
2022-08-29T23:57:12.427Z,101254.81
